createdAt,value
2022-12-24T00:01:38.315Z,19.33
2022-12-24T00:04:07.909Z,18.00
2022-12-24T00:06:36.262Z,11.90
2022-12-24T00:09:04.521Z,4.00
2022-12-24T00:11:33.464Z,3.70
2022-12-24T00:14:02.512Z,2.67
2022-12-24T00:16:29.955Z,2.20
2022-12-24T00:19:00.325Z,2.00
2022-12-24T00:21:30.748Z,1.50
2022-12-24T00:23:59.932Z,1.60
2022-12-24T00:26:29.261Z,1.40
2022-12-24T00:28:56.827Z,1.30
2022-12-24T00:31:23.849Z,1.63
2022-12-24T00:33:53.063Z,1.30
2022-12-24T00:36:21.242Z,1.20
2022-12-24T00:38:51.169Z,1.23
2022-12-24T00:41:29.519Z,1.20
2022-12-24T00:44:05.772Z,0.90
2022-12-24T00:46:36.464Z,0.90
2022-12-24T00:49:09.216Z,1.00
2022-12-24T00:51:37.361Z,1.00
2022-12-24T00:54:05.593Z,0.70
2022-12-24T00:56:35.543Z,0.83
2022-12-24T01:01:46.988Z,0.70
2022-12-24T01:04:36.294Z,0.70
2022-12-24T01:07:08.017Z,0.80
2022-12-24T01:09:35.891Z,0.50
2022-12-24T01:12:03.872Z,0.70
2022-12-24T01:14:31.815Z,0.90
2022-12-24T01:16:59.986Z,0.53
2022-12-24T01:19:29.296Z,0.60
2022-12-24T01:21:56.535Z,0.77
2022-12-24T01:24:24.798Z,0.63
2022-12-24T01:26:55.395Z,0.67
2022-12-24T01:29:23.899Z,0.80
2022-12-24T01:31:53.214Z,0.70
2022-12-24T01:34:25.038Z,0.70
2022-12-24T01:36:55.149Z,1.00
2022-12-24T01:39:22.191Z,0.87
2022-12-24T01:42:09.252Z,0.63
2022-12-24T01:44:42.506Z,0.50
2022-12-24T01:47:25.355Z,0.80
2022-12-24T01:49:59.818Z,0.70
2022-12-24T01:52:35.044Z,0.50
2022-12-24T01:55:14.042Z,0.60
2022-12-24T01:58:01.811Z,0.50
2022-12-24T02:00:30.247Z,0.40
2022-12-24T02:03:06.662Z,0.47
2022-12-24T02:05:57.028Z,0.20
2022-12-24T02:08:40.381Z,0.40
2022-12-24T02:11:18.694Z,0.40
2022-12-24T02:14:06.083Z,0.30
2022-12-24T02:17:08.486Z,0.30
2022-12-24T02:20:13.916Z,0.30
2022-12-24T02:23:29.031Z,0.30
2022-12-24T02:26:14.359Z,0.50
2022-12-24T02:29:14.737Z,0.30
2022-12-24T02:32:04.413Z,0.40
2022-12-24T02:34:45.350Z,0.20
2022-12-24T02:37:55.345Z,0.50
2022-12-24T02:40:29.575Z,0.40
2022-12-24T02:43:03.063Z,0.30
2022-12-24T02:45:34.730Z,0.10
2022-12-24T02:48:03.471Z,0.40
2022-12-24T02:50:40.461Z,0.57
2022-12-24T02:53:11.268Z,0.37
2022-12-24T02:56:03.576Z,0.30
2022-12-24T02:58:52.149Z,0.50
2022-12-24T03:01:56.678Z,0.40
2022-12-24T03:04:45.083Z,0.40
2022-12-24T03:07:15.070Z,0.50
2022-12-24T03:10:00.230Z,0.50
2022-12-24T03:12:48.850Z,0.50
2022-12-24T03:15:33.861Z,0.47
2022-12-24T03:18:05.397Z,0.50
2022-12-24T03:20:47.733Z,0.60
2022-12-24T03:23:18.029Z,0.70
2022-12-24T03:25:48.590Z,0.77
2022-12-24T03:28:19.671Z,0.93
2022-12-24T03:30:57.025Z,1.10
2022-12-24T03:33:24.039Z,1.20
2022-12-24T03:35:55.064Z,1.00
2022-12-24T03:38:24.095Z,1.20
2022-12-24T03:40:54.916Z,0.80
2022-12-24T03:43:21.955Z,0.77
2022-12-24T03:48:35.862Z,1.00
2022-12-24T03:51:05.937Z,1.03
2022-12-24T03:53:32.909Z,1.10
2022-12-24T03:58:44.230Z,1.20
2022-12-24T04:01:15.237Z,0.80
2022-12-24T04:03:42.817Z,1.10
2022-12-24T04:06:13.856Z,1.17
2022-12-24T04:08:43.658Z,1.10
2022-12-24T04:11:13.116Z,0.90
2022-12-24T04:13:40.238Z,1.07
2022-12-24T04:16:13.362Z,1.00
2022-12-24T04:18:44.765Z,1.00
2022-12-24T04:21:12.101Z,0.73
2022-12-24T04:23:45.480Z,0.80
2022-12-24T04:26:13.937Z,0.60
2022-12-24T04:28:44.202Z,0.73
2022-12-24T04:31:14.872Z,0.70
2022-12-24T04:33:43.966Z,0.60
2022-12-24T04:36:17.160Z,0.67
2022-12-24T04:41:30.266Z,0.77
2022-12-24T04:43:59.396Z,0.60
2022-12-24T04:46:32.627Z,0.53
2022-12-24T04:49:02.898Z,0.70
2022-12-24T04:51:32.270Z,0.63
2022-12-24T04:53:59.310Z,0.57
2022-12-24T04:56:30.825Z,0.60
2022-12-24T04:59:08.358Z,0.50
2022-12-24T05:01:37.333Z,0.53
2022-12-24T05:04:06.903Z,0.70
2022-12-24T05:06:37.853Z,0.50
2022-12-24T05:09:05.832Z,1.13
2022-12-24T05:11:34.183Z,0.67
2022-12-24T05:14:05.351Z,0.77
2022-12-24T05:16:34.167Z,0.80
2022-12-24T05:19:05.423Z,0.77
2022-12-24T05:21:32.867Z,0.63
2022-12-24T05:24:19.215Z,0.80
2022-12-24T05:26:50.179Z,0.77
2022-12-24T05:29:19.603Z,0.93
2022-12-24T05:31:50.906Z,0.70
2022-12-24T05:34:19.139Z,0.70
2022-12-24T05:36:46.263Z,0.97
2022-12-24T05:39:16.882Z,1.00
2022-12-24T05:41:49.653Z,0.77
2022-12-24T05:44:19.653Z,0.97
2022-12-24T05:46:46.862Z,1.00
2022-12-24T05:49:15.453Z,0.87
2022-12-24T05:51:44.404Z,1.03
2022-12-24T05:54:11.821Z,0.80
2022-12-24T05:56:38.886Z,0.70
2022-12-24T05:59:05.849Z,0.87
2022-12-24T06:01:34.657Z,1.30
2022-12-24T06:04:05.094Z,0.90
2022-12-24T06:06:35.037Z,0.90
2022-12-24T06:09:03.565Z,0.80
2022-12-24T06:11:34.199Z,0.90
2022-12-24T06:14:01.832Z,0.90
2022-12-24T06:16:28.962Z,1.00
2022-12-24T06:18:56.144Z,0.80
2022-12-24T06:21:26.259Z,0.60
2022-12-24T06:23:54.893Z,0.87
2022-12-24T06:26:25.650Z,0.90
2022-12-24T06:28:56.335Z,0.70
2022-12-24T06:31:25.044Z,0.97
2022-12-24T06:34:01.107Z,1.00
2022-12-24T06:36:29.412Z,1.00
2022-12-24T06:39:00.137Z,0.70
2022-12-24T06:41:28.455Z,0.90
2022-12-24T06:43:55.836Z,0.87
2022-12-24T06:46:23.864Z,0.83
2022-12-24T06:48:51.384Z,0.80
2022-12-24T06:51:23.463Z,0.90
2022-12-24T06:56:37.505Z,1.00
2022-12-24T06:59:07.532Z,0.80
2022-12-24T07:01:35.053Z,0.80
2022-12-24T07:04:03.734Z,1.07
2022-12-24T07:06:32.284Z,1.00
2022-12-24T07:09:02.828Z,0.90
2022-12-24T07:11:29.890Z,1.33
2022-12-24T07:14:05.891Z,1.27
2022-12-24T07:16:37.268Z,1.10
2022-12-24T07:19:05.365Z,1.00
2022-12-24T07:21:35.260Z,0.67
2022-12-24T07:24:04.839Z,1.10
2022-12-24T07:26:35.961Z,1.20
2022-12-24T07:29:05.501Z,1.20
2022-12-24T07:31:42.810Z,1.17
2022-12-24T07:34:09.833Z,0.90
2022-12-24T07:36:37.997Z,0.80
2022-12-24T07:39:07.796Z,1.00
2022-12-24T07:41:41.668Z,1.20
2022-12-24T07:44:14.473Z,1.20
2022-12-24T07:46:44.797Z,1.30
2022-12-24T07:49:13.244Z,1.27
2022-12-24T07:51:41.092Z,1.20
2022-12-24T07:54:09.135Z,1.50
2022-12-24T07:56:36.799Z,1.20
2022-12-24T07:59:05.979Z,1.10
2022-12-24T08:01:34.553Z,1.30
2022-12-24T08:04:05.161Z,1.30
2022-12-24T08:06:33.393Z,1.27
2022-12-24T08:09:01.708Z,1.50
2022-12-24T08:11:31.607Z,0.90
2022-12-24T08:13:59.745Z,1.47
2022-12-24T08:16:29.328Z,1.30
2022-12-24T08:19:00.767Z,1.20
2022-12-24T08:21:30.173Z,1.20
2022-12-24T08:23:57.167Z,1.20
2022-12-24T08:26:28.443Z,1.33
2022-12-24T08:28:59.075Z,1.13
2022-12-24T08:31:26.935Z,1.70
2022-12-24T08:33:55.240Z,1.60
2022-12-24T08:36:25.090Z,1.40
2022-12-24T08:38:53.272Z,1.37
2022-12-24T08:41:20.847Z,1.43
2022-12-24T08:43:50.267Z,1.50
2022-12-24T08:46:18.892Z,1.50
2022-12-24T08:48:54.759Z,1.30
2022-12-24T08:51:23.802Z,1.20
2022-12-24T08:53:50.759Z,1.27
2022-12-24T08:56:20.033Z,1.50
2022-12-24T08:58:49.387Z,1.43
2022-12-24T09:01:21.156Z,1.30
2022-12-24T09:03:49.380Z,1.30
2022-12-24T09:06:19.153Z,1.50
2022-12-24T09:08:47.357Z,1.40
2022-12-24T09:11:17.980Z,1.30
2022-12-24T09:13:48.488Z,1.50
2022-12-24T09:16:16.945Z,1.70
2022-12-24T09:18:44.766Z,1.80
2022-12-24T09:21:15.916Z,1.50
2022-12-24T09:23:46.125Z,1.60
2022-12-24T09:26:20.619Z,1.30
2022-12-24T09:28:50.284Z,1.30
2022-12-24T09:31:20.270Z,1.50
2022-12-24T09:33:49.610Z,1.40
2022-12-24T09:36:20.327Z,1.27
2022-12-24T09:38:49.146Z,1.50
2022-12-24T09:41:24.790Z,1.50
2022-12-24T09:44:29.478Z,1.60
2022-12-24T09:47:08.267Z,1.30
2022-12-24T09:49:49.879Z,1.60
2022-12-24T09:52:36.926Z,1.50
2022-12-24T09:55:19.523Z,1.60
2022-12-24T09:57:56.918Z,1.43
2022-12-24T10:00:30.672Z,1.37
2022-12-24T10:02:57.916Z,1.70
2022-12-24T10:05:45.018Z,1.53
2022-12-24T10:08:36.684Z,1.43
2022-12-24T10:11:14.748Z,1.60
2022-12-24T10:14:21.059Z,1.50
2022-12-24T10:17:14.944Z,1.60
2022-12-24T10:20:19.332Z,1.77
2022-12-24T10:23:34.230Z,1.67
2022-12-24T10:26:27.045Z,1.87
2022-12-24T10:28:58.936Z,1.60
2022-12-24T10:31:32.982Z,1.60
2022-12-24T10:34:14.460Z,1.83
2022-12-24T10:36:42.082Z,1.63
2022-12-24T10:39:25.445Z,1.80
2022-12-24T10:41:57.791Z,1.67
2022-12-24T10:44:31.323Z,1.73
2022-12-24T10:46:59.526Z,1.87
2022-12-24T10:49:35.381Z,1.77
2022-12-24T10:52:24.426Z,1.60
2022-12-24T10:55:16.202Z,1.60
2022-12-24T10:57:52.757Z,1.40
2022-12-24T11:00:31.758Z,1.63
2022-12-24T11:03:19.402Z,1.40
2022-12-24T11:05:50.567Z,1.87
2022-12-24T11:08:22.960Z,1.70
2022-12-24T11:10:58.898Z,1.80
2022-12-24T11:13:39.031Z,1.90
2022-12-24T11:16:37.768Z,1.80
2022-12-24T11:19:16.278Z,1.60
2022-12-24T11:21:46.042Z,1.80
2022-12-24T11:24:16.154Z,1.73
2022-12-24T11:26:46.000Z,1.90
2022-12-24T11:29:25.662Z,2.10
2022-12-24T11:32:12.679Z,1.90
2022-12-24T11:34:46.238Z,1.90
2022-12-24T11:37:24.987Z,2.00
2022-12-24T11:39:55.761Z,2.00
2022-12-24T11:42:29.449Z,2.10
2022-12-24T11:44:58.544Z,1.87
2022-12-24T11:47:40.673Z,2.13
2022-12-24T11:50:30.338Z,2.03
2022-12-24T11:53:05.761Z,2.40
2022-12-24T11:55:55.722Z,2.20
2022-12-24T11:58:47.323Z,2.20
2022-12-24T12:01:48.596Z,2.00
2022-12-24T12:04:22.095Z,2.00
2022-12-24T12:07:11.205Z,1.80
2022-12-24T12:09:52.175Z,1.90
2022-12-24T12:12:47.077Z,1.80
2022-12-24T12:15:29.588Z,1.43
2022-12-24T12:18:25.486Z,1.70
2022-12-24T12:20:56.661Z,1.70
2022-12-24T12:23:34.056Z,1.63
2022-12-24T12:26:28.232Z,1.30
2022-12-24T12:29:27.101Z,1.60
2022-12-24T12:32:08.722Z,1.53
2022-12-24T12:34:44.127Z,1.30
2022-12-24T12:37:39.760Z,1.50
2022-12-24T12:40:20.503Z,1.50
2022-12-24T12:43:10.810Z,1.57
2022-12-24T12:46:37.763Z,1.50
2022-12-24T12:49:15.722Z,1.30
2022-12-24T12:52:07.397Z,1.00
2022-12-24T12:55:22.329Z,1.00
2022-12-24T12:57:56.412Z,0.90
2022-12-24T13:00:28.242Z,1.23
2022-12-24T13:03:20.920Z,1.30
2022-12-24T13:06:26.341Z,1.00
2022-12-24T13:09:16.288Z,0.93
2022-12-24T13:12:11.281Z,0.80
2022-12-24T13:15:00.001Z,1.43
2022-12-24T13:18:26.638Z,1.40
2022-12-24T13:20:54.483Z,1.30
2022-12-24T13:23:27.484Z,1.00
2022-12-24T13:26:04.702Z,1.30
2022-12-24T13:31:31.517Z,1.50
2022-12-24T13:34:00.685Z,1.57
2022-12-24T13:37:04.381Z,1.30
2022-12-24T13:40:06.321Z,1.40
2022-12-24T13:43:03.913Z,1.60
2022-12-24T13:45:32.974Z,1.40
2022-12-24T13:48:16.349Z,1.17
2022-12-24T13:50:54.371Z,1.17
2022-12-24T13:53:41.002Z,1.23
2022-12-24T13:56:13.218Z,1.40
2022-12-24T13:58:51.833Z,1.50
2022-12-24T14:01:23.050Z,1.10
2022-12-24T14:03:59.879Z,1.20
2022-12-24T14:06:44.584Z,1.40
2022-12-24T14:09:13.579Z,1.20
2022-12-24T14:11:58.971Z,1.60
2022-12-24T14:14:34.792Z,1.70
2022-12-24T14:17:05.994Z,1.50
2022-12-24T14:19:48.828Z,1.30
2022-12-24T14:22:34.180Z,1.63
2022-12-24T14:25:32.188Z,1.30
2022-12-24T14:28:13.806Z,1.70
2022-12-24T14:30:40.796Z,1.70
2022-12-24T14:33:31.141Z,1.70
2022-12-24T14:35:58.979Z,1.57
2022-12-24T14:38:28.229Z,1.67
2022-12-24T14:41:20.003Z,1.70
2022-12-24T14:44:07.182Z,1.80
2022-12-24T14:46:46.134Z,1.90
2022-12-24T14:49:35.568Z,2.00
2022-12-24T14:52:02.753Z,1.80
2022-12-24T14:54:44.345Z,1.70
2022-12-24T14:57:11.512Z,1.63
2022-12-24T15:02:42.641Z,1.73
2022-12-24T15:05:11.718Z,1.90
2022-12-24T15:07:58.878Z,1.83
2022-12-24T15:10:41.201Z,1.60
2022-12-24T15:13:46.617Z,1.90
2022-12-24T15:16:22.502Z,1.80
2022-12-24T15:18:55.660Z,1.83
2022-12-24T15:21:33.271Z,2.00
2022-12-24T15:24:00.912Z,1.70
2022-12-24T15:26:37.583Z,2.00
2022-12-24T15:29:20.980Z,2.10
2022-12-24T15:31:56.493Z,2.33
2022-12-24T15:34:38.335Z,2.20
2022-12-24T15:37:16.804Z,2.10
2022-12-24T15:39:44.970Z,2.20
2022-12-24T15:42:18.858Z,2.00
2022-12-24T15:44:58.478Z,2.00
2022-12-24T15:47:38.534Z,2.00
2022-12-24T15:50:16.675Z,2.17
2022-12-24T15:52:47.293Z,2.00
2022-12-24T15:55:40.917Z,1.73
2022-12-24T15:58:23.022Z,2.20
2022-12-24T16:01:28.626Z,2.10
2022-12-24T16:04:00.678Z,2.20
2022-12-24T16:06:28.440Z,2.20
2022-12-24T16:08:56.942Z,1.90
2022-12-24T16:11:37.248Z,2.33
2022-12-24T16:14:19.579Z,2.10
2022-12-24T16:16:49.554Z,2.30
2022-12-24T16:19:27.861Z,1.83
2022-12-24T16:22:24.086Z,2.10
2022-12-24T16:24:54.745Z,2.10
2022-12-24T16:27:21.760Z,2.00
2022-12-24T16:29:52.629Z,2.10
2022-12-24T16:32:33.594Z,2.17
2022-12-24T16:35:03.241Z,2.10
2022-12-24T16:37:30.436Z,2.60
2022-12-24T16:39:57.446Z,2.13
2022-12-24T16:42:42.937Z,2.10
2022-12-24T16:45:10.729Z,2.00
2022-12-24T16:47:42.843Z,2.27
2022-12-24T16:50:16.872Z,2.30
2022-12-24T16:52:45.112Z,2.27
2022-12-24T16:55:16.645Z,2.27
2022-12-24T16:57:43.902Z,2.60
2022-12-24T17:00:21.726Z,2.40
2022-12-24T17:02:50.163Z,1.90
2022-12-24T17:05:20.380Z,2.37
2022-12-24T17:07:51.307Z,2.17
2022-12-24T17:10:22.159Z,2.20
2022-12-24T17:12:49.783Z,2.37
2022-12-24T17:15:16.875Z,2.20
2022-12-24T17:17:45.226Z,2.23
2022-12-24T17:20:17.815Z,2.67
2022-12-24T17:22:50.167Z,2.30
2022-12-24T17:25:17.288Z,2.60
2022-12-24T17:27:47.178Z,2.40
2022-12-24T17:30:16.820Z,2.33
2022-12-24T17:32:44.234Z,2.00
2022-12-24T17:35:11.351Z,2.10
2022-12-24T17:37:38.737Z,2.43
2022-12-24T17:40:06.515Z,2.10
2022-12-24T17:42:33.439Z,1.83
2022-12-24T17:45:00.412Z,2.10
2022-12-24T17:47:27.911Z,2.17
2022-12-24T17:49:57.530Z,2.20
2022-12-24T17:52:25.129Z,2.40
2022-12-24T17:54:54.853Z,2.30
2022-12-24T17:57:21.868Z,2.30
2022-12-24T17:59:50.271Z,2.30
2022-12-24T18:02:21.158Z,2.40
2022-12-24T18:04:49.320Z,2.10
2022-12-24T18:07:16.350Z,2.43
2022-12-24T18:09:46.261Z,2.60
2022-12-24T18:12:15.241Z,2.60
2022-12-24T18:14:44.472Z,2.30
2022-12-24T18:17:11.453Z,2.40
2022-12-24T18:19:40.921Z,2.43
2022-12-24T18:22:07.992Z,2.53
2022-12-24T18:24:36.432Z,2.47
2022-12-24T18:27:03.792Z,2.50
2022-12-24T18:29:32.151Z,2.60
2022-12-24T18:32:00.080Z,2.50
2022-12-24T18:34:27.056Z,2.07
2022-12-24T18:36:55.924Z,2.40
2022-12-24T18:39:23.273Z,2.43
2022-12-24T18:41:51.725Z,2.30
2022-12-24T18:44:24.973Z,2.67
2022-12-24T18:46:53.583Z,2.30
2022-12-24T18:49:20.807Z,2.60
2022-12-24T18:51:49.034Z,2.43
2022-12-24T18:54:16.147Z,2.53
2022-12-24T18:56:44.520Z,2.70
2022-12-24T18:59:11.446Z,2.50
2022-12-24T19:01:41.372Z,2.60
2022-12-24T19:04:10.486Z,2.53
2022-12-24T19:06:37.462Z,2.27
2022-12-24T19:09:06.807Z,2.43
2022-12-24T19:11:35.751Z,2.83
2022-12-24T19:14:07.933Z,2.80
2022-12-24T19:16:36.797Z,2.77
2022-12-24T19:19:07.175Z,2.70
2022-12-24T19:21:34.608Z,2.60
2022-12-24T19:24:01.684Z,2.63
2022-12-24T19:26:28.696Z,3.17
2022-12-24T19:28:55.647Z,3.17
2022-12-24T19:31:28.181Z,3.10
2022-12-24T19:33:57.146Z,3.10
2022-12-24T19:36:28.448Z,3.50
2022-12-24T19:38:56.831Z,3.10
2022-12-24T19:41:26.748Z,3.00
2022-12-24T19:43:56.631Z,3.00
2022-12-24T19:46:30.554Z,3.10
2022-12-24T19:49:11.823Z,3.20
2022-12-24T19:51:38.997Z,3.17
2022-12-24T19:54:14.932Z,3.60
2022-12-24T19:56:45.641Z,3.77
2022-12-24T19:59:13.895Z,4.13
2022-12-24T20:01:41.025Z,5.40
2022-12-24T20:04:13.716Z,5.60
2022-12-24T20:06:40.939Z,7.43
2022-12-24T20:09:08.783Z,5.47
2022-12-24T20:11:36.141Z,7.40
2022-12-24T20:14:05.013Z,7.33
2022-12-24T20:16:32.112Z,7.90
2022-12-24T20:19:11.999Z,8.60
2022-12-24T20:21:38.960Z,8.40
2022-12-24T20:24:07.785Z,9.10
2022-12-24T20:26:35.304Z,8.33
2022-12-24T20:29:08.469Z,7.70
2022-12-24T20:31:35.782Z,6.47
2022-12-24T20:34:05.263Z,5.97
2022-12-24T20:36:32.487Z,6.07
2022-12-24T20:39:00.136Z,5.97
2022-12-24T20:41:29.374Z,5.60
2022-12-24T20:44:01.545Z,5.57
2022-12-24T20:46:31.185Z,5.20
2022-12-24T20:48:59.426Z,5.67
2022-12-24T20:51:35.835Z,5.17
2022-12-24T20:54:02.866Z,5.70
2022-12-24T20:56:33.285Z,5.23
2022-12-24T20:59:01.724Z,5.17
2022-12-24T21:01:29.281Z,4.80
2022-12-24T21:03:57.935Z,4.47
2022-12-24T21:06:27.543Z,4.80
2022-12-24T21:08:55.755Z,4.30
2022-12-24T21:11:43.224Z,4.03
2022-12-24T21:14:11.735Z,3.90
2022-12-24T21:16:39.587Z,3.73
2022-12-24T21:19:08.261Z,3.93
2022-12-24T21:21:35.608Z,4.03
2022-12-24T21:24:04.149Z,3.87
2022-12-24T21:26:32.166Z,3.93
2022-12-24T21:29:01.591Z,3.83
2022-12-24T21:31:32.271Z,3.77
2022-12-24T21:33:59.966Z,4.10
2022-12-24T21:36:32.745Z,4.13
2022-12-24T21:39:02.557Z,4.30
2022-12-24T21:41:30.895Z,4.80
2022-12-24T21:44:03.122Z,4.50
2022-12-24T21:46:33.387Z,5.10
2022-12-24T21:49:20.168Z,4.63
2022-12-24T21:51:49.348Z,4.20
2022-12-24T21:54:33.157Z,4.37
2022-12-24T21:57:23.416Z,4.20
2022-12-24T21:59:59.737Z,4.20
2022-12-24T22:02:29.873Z,5.13
2022-12-24T22:04:59.497Z,4.60
2022-12-24T22:07:46.522Z,4.70
2022-12-24T22:10:35.552Z,4.67
2022-12-24T22:13:09.780Z,4.80
2022-12-24T22:15:42.286Z,4.30
2022-12-24T22:18:11.222Z,4.60
2022-12-24T22:20:40.128Z,4.70
2022-12-24T22:23:09.450Z,4.70
2022-12-24T22:25:40.054Z,4.57
2022-12-24T22:28:10.639Z,4.63
2022-12-24T22:30:42.866Z,4.53
2022-12-24T22:33:11.636Z,4.30
2022-12-24T22:35:40.392Z,4.43
2022-12-24T22:38:10.770Z,4.73
2022-12-24T22:40:40.605Z,4.50
2022-12-24T22:43:12.110Z,4.30
2022-12-24T22:45:40.309Z,4.40
2022-12-24T22:48:07.883Z,4.20
2022-12-24T22:50:36.138Z,4.50
2022-12-24T22:53:03.045Z,4.37
2022-12-24T22:55:34.042Z,4.20
2022-12-24T22:58:02.994Z,4.30
2022-12-24T23:00:46.054Z,4.23
2022-12-24T23:03:13.641Z,4.50
2022-12-24T23:05:44.690Z,3.93
2022-12-24T23:08:13.224Z,4.90
2022-12-24T23:10:41.603Z,4.90
2022-12-24T23:13:26.947Z,4.70
2022-12-24T23:15:55.031Z,4.80
2022-12-24T23:18:22.299Z,4.57
2022-12-24T23:20:49.234Z,4.60
2022-12-24T23:23:16.228Z,4.43
2022-12-24T23:25:43.700Z,4.50
2022-12-24T23:28:11.805Z,4.40
2022-12-24T23:30:40.026Z,4.70
2022-12-24T23:33:09.501Z,4.80
2022-12-24T23:35:36.427Z,5.13
2022-12-24T23:38:03.328Z,4.70
2022-12-24T23:40:32.263Z,5.10
2022-12-24T23:43:00.510Z,4.60
2022-12-24T23:45:29.925Z,4.27
2022-12-24T23:47:56.877Z,4.83
2022-12-24T23:50:26.133Z,4.10
2022-12-24T23:52:54.576Z,4.80
2022-12-24T23:55:21.686Z,4.50
2022-12-24T23:57:48.996Z,4.50
